sensor_id;sensor_type;location;lat;lon;timestamp;P1;durP1;ratioP1;P2;durP2;ratioP2
73841;SDS011;62184;52.006;5.924;2023-08-24T00:01:43;12.32;;;10.70;;
73841;SDS011;62184;52.006;5.924;2023-08-24T00:04:10;11.75;;;10.23;;
73841;SDS011;62184;52.006;5.924;2023-08-24T00:06:36;11.40;;;10.30;;
73841;SDS011;62184;52.006;5.924;2023-08-24T00:09:05;11.18;;;10.00;;
73841;SDS011;62184;52.006;5.924;2023-08-24T00:11:32;11.27;;;10.18;;
73841;SDS011;62184;52.006;5.924;2023-08-24T00:13:58;12.55;;;10.52;;
73841;SDS011;62184;52.006;5.924;2023-08-24T00:16:25;12.70;;;10.73;;
73841;SDS011;62184;52.006;5.924;2023-08-24T00:18:51;12.60;;;11.25;;
73841;SDS011;62184;52.006;5.924;2023-08-24T00:21:18;13.98;;;11.10;;
73841;SDS011;62184;52.006;5.924;2023-08-24T00:23:44;13.05;;;11.75;;
73841;SDS011;62184;52.006;5.924;2023-08-24T00:26:13;12.77;;;11.50;;
73841;SDS011;62184;52.006;5.924;2023-08-24T00:28:40;12.95;;;11.00;;
73841;SDS011;62184;52.006;5.924;2023-08-24T00:31:06;12.53;;;11.23;;
73841;SDS011;62184;52.006;5.924;2023-08-24T00:33:33;13.23;;;11.43;;
73841;SDS011;62184;52.006;5.924;2023-08-24T00:36:00;12.65;;;11.35;;
73841;SDS011;62184;52.006;5.924;2023-08-24T00:38:27;13.50;;;12.20;;
73841;SDS011;62184;52.006;5.924;2023-08-24T00:40:53;13.35;;;11.98;;
73841;SDS011;62184;52.006;5.924;2023-08-24T00:43:23;13.48;;;12.18;;
73841;SDS011;62184;52.006;5.924;2023-08-24T00:45:49;13.73;;;12.33;;
73841;SDS011;62184;52.006;5.924;2023-08-24T00:48:16;14.15;;;12.73;;
73841;SDS011;62184;52.006;5.924;2023-08-24T00:50:43;15.50;;;12.93;;
73841;SDS011;62184;52.006;5.924;2023-08-24T00:53:10;14.03;;;12.60;;
73841;SDS011;62184;52.006;5.924;2023-08-24T00:55:37;16.13;;;12.75;;
73841;SDS011;62184;52.006;5.924;2023-08-24T00:58:04;14.73;;;13.25;;
73841;SDS011;62184;52.006;5.924;2023-08-24T01:00:34;15.02;;;12.73;;
73841;SDS011;62184;52.006;5.924;2023-08-24T01:03:01;14.50;;;12.57;;
73841;SDS011;62184;52.006;5.924;2023-08-24T01:05:28;15.73;;;13.15;;
73841;SDS011;62184;52.006;5.924;2023-08-24T01:07:55;15.48;;;13.60;;
73841;SDS011;62184;52.006;5.924;2023-08-24T01:10:22;15.10;;;13.60;;
73841;SDS011;62184;52.006;5.924;2023-08-24T01:12:57;14.35;;;12.85;;
73841;SDS011;62184;52.006;5.924;2023-08-24T01:15:37;17.30;;;14.27;;
73841;SDS011;62184;52.006;5.924;2023-08-24T01:18:14;16.47;;;13.33;;
73841;SDS011;62184;52.006;5.924;2023-08-24T01:20:43;15.60;;;13.90;;
73841;SDS011;62184;52.006;5.924;2023-08-24T01:23:14;16.05;;;13.65;;
73841;SDS011;62184;52.006;5.924;2023-08-24T01:26:04;16.25;;;14.55;;
73841;SDS011;62184;52.006;5.924;2023-08-24T01:28:35;17.70;;;14.23;;
73841;SDS011;62184;52.006;5.924;2023-08-24T01:31:03;17.25;;;14.52;;
73841;SDS011;62184;52.006;5.924;2023-08-24T01:33:30;17.98;;;14.55;;
73841;SDS011;62184;52.006;5.924;2023-08-24T01:35:57;16.55;;;14.35;;
73841;SDS011;62184;52.006;5.924;2023-08-24T01:38:23;17.02;;;14.02;;
73841;SDS011;62184;52.006;5.924;2023-08-24T01:40:53;16.27;;;14.50;;
73841;SDS011;62184;52.006;5.924;2023-08-24T01:43:32;17.50;;;14.85;;
73841;SDS011;62184;52.006;5.924;2023-08-24T01:46:04;16.40;;;14.63;;
73841;SDS011;62184;52.006;5.924;2023-08-24T01:48:33;16.42;;;14.38;;
73841;SDS011;62184;52.006;5.924;2023-08-24T01:51:00;17.87;;;15.40;;
73841;SDS011;62184;52.006;5.924;2023-08-24T01:53:30;17.02;;;15.00;;
73841;SDS011;62184;52.006;5.924;2023-08-24T01:55:57;17.23;;;15.32;;
73841;SDS011;62184;52.006;5.924;2023-08-24T01:58:24;16.70;;;14.68;;
73841;SDS011;62184;52.006;5.924;2023-08-24T02:00:53;16.40;;;14.70;;
73841;SDS011;62184;52.006;5.924;2023-08-24T02:03:20;16.70;;;15.00;;
73841;SDS011;62184;52.006;5.924;2023-08-24T02:05:46;17.30;;;15.02;;
73841;SDS011;62184;52.006;5.924;2023-08-24T02:08:12;16.88;;;14.93;;
73841;SDS011;62184;52.006;5.924;2023-08-24T02:10:39;17.05;;;14.38;;
73841;SDS011;62184;52.006;5.924;2023-08-24T02:13:05;16.20;;;14.27;;
73841;SDS011;62184;52.006;5.924;2023-08-24T02:15:32;16.17;;;14.57;;
73841;SDS011;62184;52.006;5.924;2023-08-24T02:18:02;16.13;;;14.43;;
73841;SDS011;62184;52.006;5.924;2023-08-24T02:20:29;16.15;;;14.32;;
73841;SDS011;62184;52.006;5.924;2023-08-24T02:22:56;17.67;;;14.30;;
73841;SDS011;62184;52.006;5.924;2023-08-24T02:25:22;16.08;;;14.10;;
73841;SDS011;62184;52.006;5.924;2023-08-24T02:27:48;15.37;;;13.77;;
73841;SDS011;62184;52.006;5.924;2023-08-24T02:30:15;16.00;;;14.30;;
73841;SDS011;62184;52.006;5.924;2023-08-24T02:32:41;15.88;;;13.82;;
73841;SDS011;62184;52.006;5.924;2023-08-24T02:35:11;16.58;;;13.95;;
73841;SDS011;62184;52.006;5.924;2023-08-24T02:37:37;16.00;;;14.30;;
73841;SDS011;62184;52.006;5.924;2023-08-24T02:40:04;16.33;;;14.30;;
73841;SDS011;62184;52.006;5.924;2023-08-24T02:42:33;15.88;;;14.18;;
73841;SDS011;62184;52.006;5.924;2023-08-24T02:44:59;16.50;;;14.63;;
73841;SDS011;62184;52.006;5.924;2023-08-24T02:47:26;16.48;;;14.70;;
73841;SDS011;62184;52.006;5.924;2023-08-24T02:49:52;16.70;;;15.00;;
73841;SDS011;62184;52.006;5.924;2023-08-24T02:52:21;16.50;;;14.80;;
73841;SDS011;62184;52.006;5.924;2023-08-24T02:54:48;17.88;;;15.95;;
73841;SDS011;62184;52.006;5.924;2023-08-24T02:57:14;18.52;;;15.45;;
73841;SDS011;62184;52.006;5.924;2023-08-24T02:59:41;17.47;;;15.60;;
73841;SDS011;62184;52.006;5.924;2023-08-24T03:02:07;17.13;;;15.30;;
73841;SDS011;62184;52.006;5.924;2023-08-24T03:04:34;17.48;;;15.65;;
73841;SDS011;62184;52.006;5.924;2023-08-24T03:07:00;17.75;;;15.82;;
73841;SDS011;62184;52.006;5.924;2023-08-24T03:09:29;17.60;;;15.80;;
73841;SDS011;62184;52.006;5.924;2023-08-24T03:11:56;18.33;;;16.40;;
73841;SDS011;62184;52.006;5.924;2023-08-24T03:14:22;19.40;;;16.77;;
73841;SDS011;62184;52.006;5.924;2023-08-24T03:16:49;18.92;;;16.80;;
73841;SDS011;62184;52.006;5.924;2023-08-24T03:19:15;18.02;;;16.10;;
73841;SDS011;62184;52.006;5.924;2023-08-24T03:21:42;19.00;;;16.73;;
73841;SDS011;62184;52.006;5.924;2023-08-24T03:24:08;18.80;;;16.77;;
73841;SDS011;62184;52.006;5.924;2023-08-24T03:26:37;20.83;;;17.07;;
73841;SDS011;62184;52.006;5.924;2023-08-24T03:29:04;20.35;;;17.27;;
73841;SDS011;62184;52.006;5.924;2023-08-24T03:31:30;19.70;;;17.60;;
73841;SDS011;62184;52.006;5.924;2023-08-24T03:33:56;19.63;;;17.63;;
73841;SDS011;62184;52.006;5.924;2023-08-24T03:36:23;22.02;;;18.02;;
73841;SDS011;62184;52.006;5.924;2023-08-24T03:38:49;18.98;;;16.90;;
73841;SDS011;62184;52.006;5.924;2023-08-24T03:41:16;19.50;;;17.40;;
73841;SDS011;62184;52.006;5.924;2023-08-24T03:43:45;19.73;;;17.27;;
73841;SDS011;62184;52.006;5.924;2023-08-24T03:46:11;19.67;;;17.58;;
73841;SDS011;62184;52.006;5.924;2023-08-24T03:48:38;21.07;;;17.87;;
73841;SDS011;62184;52.006;5.924;2023-08-24T03:51:04;19.95;;;17.75;;
73841;SDS011;62184;52.006;5.924;2023-08-24T03:53:31;20.10;;;17.52;;
73841;SDS011;62184;52.006;5.924;2023-08-24T03:55:57;20.98;;;17.83;;
73841;SDS011;62184;52.006;5.924;2023-08-24T03:58:24;19.75;;;17.27;;
73841;SDS011;62184;52.006;5.924;2023-08-24T04:00:53;19.93;;;17.07;;
73841;SDS011;62184;52.006;5.924;2023-08-24T04:03:19;19.15;;;16.67;;
73841;SDS011;62184;52.006;5.924;2023-08-24T04:05:46;21.03;;;18.10;;
73841;SDS011;62184;52.006;5.924;2023-08-24T04:08:12;20.33;;;17.67;;
73841;SDS011;62184;52.006;5.924;2023-08-24T04:10:39;21.02;;;17.67;;
73841;SDS011;62184;52.006;5.924;2023-08-24T04:13:05;20.10;;;17.90;;
73841;SDS011;62184;52.006;5.924;2023-08-24T04:15:32;21.70;;;19.00;;
73841;SDS011;62184;52.006;5.924;2023-08-24T04:18:01;22.73;;;19.60;;
73841;SDS011;62184;52.006;5.924;2023-08-24T04:20:28;20.83;;;18.45;;
73841;SDS011;62184;52.006;5.924;2023-08-24T04:22:54;22.70;;;18.75;;
73841;SDS011;62184;52.006;5.924;2023-08-24T04:25:21;20.85;;;18.65;;
73841;SDS011;62184;52.006;5.924;2023-08-24T04:27:47;21.40;;;18.60;;
73841;SDS011;62184;52.006;5.924;2023-08-24T04:30:14;23.20;;;18.92;;
73841;SDS011;62184;52.006;5.924;2023-08-24T04:32:40;22.08;;;17.80;;
73841;SDS011;62184;52.006;5.924;2023-08-24T04:35:10;19.45;;;17.23;;
73841;SDS011;62184;52.006;5.924;2023-08-24T04:37:36;22.98;;;18.75;;
73841;SDS011;62184;52.006;5.924;2023-08-24T04:40:03;21.17;;;18.47;;
73841;SDS011;62184;52.006;5.924;2023-08-24T04:42:32;20.45;;;18.15;;
73841;SDS011;62184;52.006;5.924;2023-08-24T04:44:58;21.90;;;18.33;;
73841;SDS011;62184;52.006;5.924;2023-08-24T04:47:25;22.75;;;18.52;;
73841;SDS011;62184;52.006;5.924;2023-08-24T04:49:51;22.02;;;18.77;;
73841;SDS011;62184;52.006;5.924;2023-08-24T04:52:20;21.60;;;19.00;;
73841;SDS011;62184;52.006;5.924;2023-08-24T04:54:47;21.88;;;18.50;;
73841;SDS011;62184;52.006;5.924;2023-08-24T04:57:13;20.77;;;17.50;;
73841;SDS011;62184;52.006;5.924;2023-08-24T04:59:39;22.23;;;18.20;;
73841;SDS011;62184;52.006;5.924;2023-08-24T05:02:06;23.13;;;18.35;;
73841;SDS011;62184;52.006;5.924;2023-08-24T05:04:32;20.87;;;17.90;;
73841;SDS011;62184;52.006;5.924;2023-08-24T05:06:59;21.27;;;17.65;;
73841;SDS011;62184;52.006;5.924;2023-08-24T05:09:28;20.90;;;17.42;;
73841;SDS011;62184;52.006;5.924;2023-08-24T05:11:54;20.77;;;17.63;;
73841;SDS011;62184;52.006;5.924;2023-08-24T05:14:21;20.95;;;17.10;;
73841;SDS011;62184;52.006;5.924;2023-08-24T05:16:47;22.25;;;17.58;;
73841;SDS011;62184;52.006;5.924;2023-08-24T05:19:14;20.17;;;17.02;;
73841;SDS011;62184;52.006;5.924;2023-08-24T05:21:40;20.03;;;16.73;;
73841;SDS011;62184;52.006;5.924;2023-08-24T05:24:07;19.25;;;17.00;;
73841;SDS011;62184;52.006;5.924;2023-08-24T05:26:36;19.00;;;16.90;;
73841;SDS011;62184;52.006;5.924;2023-08-24T05:29:02;18.85;;;16.83;;
73841;SDS011;62184;52.006;5.924;2023-08-24T05:31:29;19.50;;;16.83;;
73841;SDS011;62184;52.006;5.924;2023-08-24T05:33:55;17.70;;;15.80;;
73841;SDS011;62184;52.006;5.924;2023-08-24T05:36:22;19.05;;;16.48;;
73841;SDS011;62184;52.006;5.924;2023-08-24T05:38:48;18.10;;;16.17;;
73841;SDS011;62184;52.006;5.924;2023-08-24T05:41:15;19.02;;;15.95;;
73841;SDS011;62184;52.006;5.924;2023-08-24T05:43:44;17.80;;;15.90;;
73841;SDS011;62184;52.006;5.924;2023-08-24T05:46:10;19.60;;;15.93;;
73841;SDS011;62184;52.006;5.924;2023-08-24T05:48:36;19.00;;;17.00;;
73841;SDS011;62184;52.006;5.924;2023-08-24T05:51:03;18.55;;;16.60;;
73841;SDS011;62184;52.006;5.924;2023-08-24T05:53:29;18.23;;;15.93;;
73841;SDS011;62184;52.006;5.924;2023-08-24T05:55:59;17.95;;;16.05;;
73841;SDS011;62184;52.006;5.924;2023-08-24T05:58:25;18.20;;;16.27;;
73841;SDS011;62184;52.006;5.924;2023-08-24T06:01:00;18.40;;;16.40;;
73841;SDS011;62184;52.006;5.924;2023-08-24T06:03:27;18.63;;;16.63;;
73841;SDS011;62184;52.006;5.924;2023-08-24T06:05:53;18.40;;;16.17;;
73841;SDS011;62184;52.006;5.924;2023-08-24T06:08:26;18.63;;;16.70;;
73841;SDS011;62184;52.006;5.924;2023-08-24T06:10:52;19.45;;;16.65;;
73841;SDS011;62184;52.006;5.924;2023-08-24T06:13:19;19.13;;;16.92;;
73841;SDS011;62184;52.006;5.924;2023-08-24T06:15:45;18.63;;;16.63;;
73841;SDS011;62184;52.006;5.924;2023-08-24T06:18:14;18.67;;;16.52;;
73841;SDS011;62184;52.006;5.924;2023-08-24T06:20:40;19.40;;;17.30;;
73841;SDS011;62184;52.006;5.924;2023-08-24T06:23:07;21.75;;;17.60;;
73841;SDS011;62184;52.006;5.924;2023-08-24T06:25:33;19.27;;;17.27;;
73841;SDS011;62184;52.006;5.924;2023-08-24T06:28:01;19.83;;;17.73;;
73841;SDS011;62184;52.006;5.924;2023-08-24T06:30:28;19.67;;;17.60;;
73841;SDS011;62184;52.006;5.924;2023-08-24T06:32:54;20.15;;;18.05;;
73841;SDS011;62184;52.006;5.924;2023-08-24T06:35:23;19.73;;;17.50;;
73841;SDS011;62184;52.006;5.924;2023-08-24T06:37:50;19.63;;;17.70;;
73841;SDS011;62184;52.006;5.924;2023-08-24T06:40:16;20.23;;;18.13;;
73841;SDS011;62184;52.006;5.924;2023-08-24T06:42:43;20.25;;;18.17;;
73841;SDS011;62184;52.006;5.924;2023-08-24T06:45:10;20.90;;;18.80;;
73841;SDS011;62184;52.006;5.924;2023-08-24T06:47:36;20.30;;;18.10;;
73841;SDS011;62184;52.006;5.924;2023-08-24T06:50:03;21.33;;;19.02;;
73841;SDS011;62184;52.006;5.924;2023-08-24T06:52:33;20.33;;;18.25;;
73841;SDS011;62184;52.006;5.924;2023-08-24T06:54:59;20.30;;;18.20;;
73841;SDS011;62184;52.006;5.924;2023-08-24T06:57:26;20.83;;;18.47;;
73841;SDS011;62184;52.006;5.924;2023-08-24T06:59:52;20.20;;;18.10;;
73841;SDS011;62184;52.006;5.924;2023-08-24T07:02:19;19.83;;;17.73;;
73841;SDS011;62184;52.006;5.924;2023-08-24T07:04:45;20.13;;;18.02;;
73841;SDS011;62184;52.006;5.924;2023-08-24T07:07:12;21.58;;;18.60;;
73841;SDS011;62184;52.006;5.924;2023-08-24T07:09:42;20.60;;;18.50;;
73841;SDS011;62184;52.006;5.924;2023-08-24T07:12:09;20.30;;;18.20;;
73841;SDS011;62184;52.006;5.924;2023-08-24T07:14:35;19.98;;;17.90;;
73841;SDS011;62184;52.006;5.924;2023-08-24T07:17:02;20.23;;;18.13;;
73841;SDS011;62184;52.006;5.924;2023-08-24T07:19:28;20.05;;;18.02;;
73841;SDS011;62184;52.006;5.924;2023-08-24T07:21:55;20.88;;;18.70;;
73841;SDS011;62184;52.006;5.924;2023-08-24T07:24:21;20.35;;;18.15;;
73841;SDS011;62184;52.006;5.924;2023-08-24T07:26:50;19.90;;;17.97;;
73841;SDS011;62184;52.006;5.924;2023-08-24T07:29:17;19.80;;;17.70;;
73841;SDS011;62184;52.006;5.924;2023-08-24T07:31:43;19.52;;;17.50;;
73841;SDS011;62184;52.006;5.924;2023-08-24T07:34:10;18.98;;;16.98;;
73841;SDS011;62184;52.006;5.924;2023-08-24T07:36:36;18.35;;;16.48;;
73841;SDS011;62184;52.006;5.924;2023-08-24T07:39:03;18.40;;;16.27;;
73841;SDS011;62184;52.006;5.924;2023-08-24T07:41:30;18.95;;;17.05;;
73841;SDS011;62184;52.006;5.924;2023-08-24T07:43:59;18.40;;;16.50;;
73841;SDS011;62184;52.006;5.924;2023-08-24T07:46:25;19.02;;;17.02;;
73841;SDS011;62184;52.006;5.924;2023-08-24T07:48:52;19.30;;;17.30;;
73841;SDS011;62184;52.006;5.924;2023-08-24T07:51:18;19.47;;;17.37;;
73841;SDS011;62184;52.006;5.924;2023-08-24T07:53:45;17.73;;;15.93;;
73841;SDS011;62184;52.006;5.924;2023-08-24T07:56:11;18.00;;;16.13;;
73841;SDS011;62184;52.006;5.924;2023-08-24T07:58:38;18.23;;;16.52;;
73841;SDS011;62184;52.006;5.924;2023-08-24T08:01:07;18.23;;;16.42;;
73841;SDS011;62184;52.006;5.924;2023-08-24T08:03:33;20.23;;;16.88;;
73841;SDS011;62184;52.006;5.924;2023-08-24T08:06:00;18.27;;;16.48;;
73841;SDS011;62184;52.006;5.924;2023-08-24T08:08:26;18.15;;;16.30;;
73841;SDS011;62184;52.006;5.924;2023-08-24T08:10:59;18.05;;;16.15;;
73841;SDS011;62184;52.006;5.924;2023-08-24T08:13:27;19.20;;;15.70;;
73841;SDS011;62184;52.006;5.924;2023-08-24T08:15:54;18.60;;;16.63;;
73841;SDS011;62184;52.006;5.924;2023-08-24T08:18:28;18.08;;;16.27;;
73841;SDS011;62184;52.006;5.924;2023-08-24T08:20:54;19.27;;;15.82;;
73841;SDS011;62184;52.006;5.924;2023-08-24T08:23:21;17.90;;;16.00;;
73841;SDS011;62184;52.006;5.924;2023-08-24T08:25:47;17.60;;;15.80;;
73841;SDS011;62184;52.006;5.924;2023-08-24T08:28:14;18.23;;;16.42;;
73841;SDS011;62184;52.006;5.924;2023-08-24T08:30:40;18.30;;;16.50;;
73841;SDS011;62184;52.006;5.924;2023-08-24T08:33:07;18.77;;;16.88;;
73841;SDS011;62184;52.006;5.924;2023-08-24T08:35:36;18.55;;;16.65;;
73841;SDS011;62184;52.006;5.924;2023-08-24T08:38:05;19.05;;;17.05;;
73841;SDS011;62184;52.006;5.924;2023-08-24T08:40:31;19.27;;;17.27;;
73841;SDS011;62184;52.006;5.924;2023-08-24T08:42:58;18.83;;;17.03;;
73841;SDS011;62184;52.006;5.924;2023-08-24T08:45:25;19.33;;;17.33;;
73841;SDS011;62184;52.006;5.924;2023-08-24T08:47:52;19.63;;;17.53;;
73841;SDS011;62184;52.006;5.924;2023-08-24T08:50:23;19.35;;;17.38;;
73841;SDS011;62184;52.006;5.924;2023-08-24T08:52:54;18.80;;;17.00;;
73841;SDS011;62184;52.006;5.924;2023-08-24T08:55:21;19.25;;;17.20;;
73841;SDS011;62184;52.006;5.924;2023-08-24T08:57:48;18.92;;;16.27;;
73841;SDS011;62184;52.006;5.924;2023-08-24T09:00:15;19.27;;;17.25;;
73841;SDS011;62184;52.006;5.924;2023-08-24T09:02:44;19.60;;;17.20;;
73841;SDS011;62184;52.006;5.924;2023-08-24T09:05:15;18.83;;;16.98;;
73841;SDS011;62184;52.006;5.924;2023-08-24T09:07:42;19.65;;;17.63;;
73841;SDS011;62184;52.006;5.924;2023-08-24T09:10:13;20.80;;;18.35;;
73841;SDS011;62184;52.006;5.924;2023-08-24T09:12:39;20.15;;;18.08;;
73841;SDS011;62184;52.006;5.924;2023-08-24T09:15:06;20.23;;;18.13;;
73841;SDS011;62184;52.006;5.924;2023-08-24T09:17:34;21.75;;;17.40;;
73841;SDS011;62184;52.006;5.924;2023-08-24T09:20:06;18.98;;;17.17;;
73841;SDS011;62184;52.006;5.924;2023-08-24T09:22:34;19.73;;;17.73;;
73841;SDS011;62184;52.006;5.924;2023-08-24T09:25:02;19.37;;;17.33;;
73841;SDS011;62184;52.006;5.924;2023-08-24T09:27:33;19.40;;;17.10;;
73841;SDS011;62184;52.006;5.924;2023-08-24T09:30:00;19.15;;;17.15;;
73841;SDS011;62184;52.006;5.924;2023-08-24T09:32:27;19.45;;;17.55;;
73841;SDS011;62184;52.006;5.924;2023-08-24T09:34:55;19.10;;;17.15;;
73841;SDS011;62184;52.006;5.924;2023-08-24T09:37:30;19.88;;;17.77;;
73841;SDS011;62184;52.006;5.924;2023-08-24T09:40:00;19.92;;;17.92;;
73841;SDS011;62184;52.006;5.924;2023-08-24T09:42:28;19.83;;;17.88;;
73841;SDS011;62184;52.006;5.924;2023-08-24T09:44:57;19.75;;;17.75;;
73841;SDS011;62184;52.006;5.924;2023-08-24T09:47:29;19.80;;;17.77;;
73841;SDS011;62184;52.006;5.924;2023-08-24T09:49:55;18.65;;;16.65;;
73841;SDS011;62184;52.006;5.924;2023-08-24T09:52:22;18.80;;;16.90;;
73841;SDS011;62184;52.006;5.924;2023-08-24T09:54:56;18.45;;;16.65;;
73841;SDS011;62184;52.006;5.924;2023-08-24T09:57:28;19.38;;;16.58;;
73841;SDS011;62184;52.006;5.924;2023-08-24T09:59:58;18.48;;;16.58;;
73841;SDS011;62184;52.006;5.924;2023-08-24T10:02:26;17.80;;;16.02;;
73841;SDS011;62184;52.006;5.924;2023-08-24T10:05:01;17.23;;;15.43;;
73841;SDS011;62184;52.006;5.924;2023-08-24T10:07:30;17.40;;;15.10;;
73841;SDS011;62184;52.006;5.924;2023-08-24T10:09:58;16.98;;;15.27;;
73841;SDS011;62184;52.006;5.924;2023-08-24T10:12:43;16.83;;;14.85;;
73841;SDS011;62184;52.006;5.924;2023-08-24T10:15:18;17.02;;;15.23;;
73841;SDS011;62184;52.006;5.924;2023-08-24T10:17:46;17.00;;;15.20;;
73841;SDS011;62184;52.006;5.924;2023-08-24T10:20:15;17.35;;;15.55;;
73841;SDS011;62184;52.006;5.924;2023-08-24T10:22:45;16.67;;;14.93;;
73841;SDS011;62184;52.006;5.924;2023-08-24T10:25:14;15.80;;;14.20;;
73841;SDS011;62184;52.006;5.924;2023-08-24T10:27:42;16.25;;;14.38;;
73841;SDS011;62184;52.006;5.924;2023-08-24T10:30:11;16.23;;;14.63;;
73841;SDS011;62184;52.006;5.924;2023-08-24T10:32:41;19.97;;;14.77;;
73841;SDS011;62184;52.006;5.924;2023-08-24T10:35:09;16.35;;;14.48;;
73841;SDS011;62184;52.006;5.924;2023-08-24T10:37:36;16.67;;;14.90;;
73841;SDS011;62184;52.006;5.924;2023-08-24T10:40:03;17.10;;;15.13;;
73841;SDS011;62184;52.006;5.924;2023-08-24T10:42:42;17.17;;;15.48;;
73841;SDS011;62184;52.006;5.924;2023-08-24T10:45:10;17.63;;;15.82;;
73841;SDS011;62184;52.006;5.924;2023-08-24T10:47:46;17.88;;;15.98;;
73841;SDS011;62184;52.006;5.924;2023-08-24T10:50:12;19.00;;;16.40;;
73841;SDS011;62184;52.006;5.924;2023-08-24T10:52:40;17.40;;;15.57;;
73841;SDS011;62184;52.006;5.924;2023-08-24T10:55:21;17.80;;;15.90;;
73841;SDS011;62184;52.006;5.924;2023-08-24T10:57:56;17.08;;;15.20;;
73841;SDS011;62184;52.006;5.924;2023-08-24T11:00:25;17.20;;;15.40;;
73841;SDS011;62184;52.006;5.924;2023-08-24T11:02:56;16.85;;;15.05;;
73841;SDS011;62184;52.006;5.924;2023-08-24T11:05:24;16.92;;;15.20;;
73841;SDS011;62184;52.006;5.924;2023-08-24T11:07:54;17.08;;;15.27;;
73841;SDS011;62184;52.006;5.924;2023-08-24T11:10:24;17.07;;;15.27;;
73841;SDS011;62184;52.006;5.924;2023-08-24T11:13:07;17.17;;;15.37;;
73841;SDS011;62184;52.006;5.924;2023-08-24T11:15:39;17.88;;;15.07;;
73841;SDS011;62184;52.006;5.924;2023-08-24T11:18:13;17.42;;;14.55;;
73841;SDS011;62184;52.006;5.924;2023-08-24T11:20:49;16.23;;;14.63;;
73841;SDS011;62184;52.006;5.924;2023-08-24T11:23:17;17.20;;;15.27;;
73841;SDS011;62184;52.006;5.924;2023-08-24T11:25:45;16.77;;;14.98;;
73841;SDS011;62184;52.006;5.924;2023-08-24T11:28:16;16.80;;;15.02;;
73841;SDS011;62184;52.006;5.924;2023-08-24T11:30:45;16.45;;;14.80;;
73841;SDS011;62184;52.006;5.924;2023-08-24T11:33:15;16.07;;;14.47;;
73841;SDS011;62184;52.006;5.924;2023-08-24T11:35:42;16.90;;;15.10;;
73841;SDS011;62184;52.006;5.924;2023-08-24T11:38:11;15.93;;;14.23;;
73841;SDS011;62184;52.006;5.924;2023-08-24T11:40:38;16.57;;;14.87;;
73841;SDS011;62184;52.006;5.924;2023-08-24T11:43:04;16.25;;;14.38;;
73841;SDS011;62184;52.006;5.924;2023-08-24T11:45:31;19.75;;;14.48;;
73841;SDS011;62184;52.006;5.924;2023-08-24T11:48:00;15.70;;;14.10;;
73841;SDS011;62184;52.006;5.924;2023-08-24T11:50:31;15.10;;;13.50;;
73841;SDS011;62184;52.006;5.924;2023-08-24T11:52:59;14.63;;;13.10;;
73841;SDS011;62184;52.006;5.924;2023-08-24T11:55:26;13.75;;;12.35;;
73841;SDS011;62184;52.006;5.924;2023-08-24T11:57:52;14.07;;;12.55;;
73841;SDS011;62184;52.006;5.924;2023-08-24T12:00:19;14.45;;;12.70;;
73841;SDS011;62184;52.006;5.924;2023-08-24T12:02:47;14.85;;;12.88;;
73841;SDS011;62184;52.006;5.924;2023-08-24T12:05:21;14.70;;;12.65;;
73841;SDS011;62184;52.006;5.924;2023-08-24T12:07:51;14.35;;;12.85;;
73841;SDS011;62184;52.006;5.924;2023-08-24T12:10:19;13.77;;;12.20;;
73841;SDS011;62184;52.006;5.924;2023-08-24T12:12:47;14.77;;;12.50;;
73841;SDS011;62184;52.006;5.924;2023-08-24T12:15:16;13.93;;;12.50;;
73841;SDS011;62184;52.006;5.924;2023-08-24T12:17:45;14.23;;;12.73;;
73841;SDS011;62184;52.006;5.924;2023-08-24T12:20:17;15.18;;;13.57;;
73841;SDS011;62184;52.006;5.924;2023-08-24T12:22:57;15.57;;;13.93;;
73841;SDS011;62184;52.006;5.924;2023-08-24T12:25:24;15.77;;;13.17;;
73841;SDS011;62184;52.006;5.924;2023-08-24T12:27:51;15.30;;;13.25;;
73841;SDS011;62184;52.006;5.924;2023-08-24T12:30:19;15.10;;;12.63;;
73841;SDS011;62184;52.006;5.924;2023-08-24T12:32:46;15.20;;;12.98;;
73841;SDS011;62184;52.006;5.924;2023-08-24T12:35:14;16.60;;;12.55;;
73841;SDS011;62184;52.006;5.924;2023-08-24T12:37:41;16.03;;;13.40;;
73841;SDS011;62184;52.006;5.924;2023-08-24T12:40:10;16.50;;;13.23;;
73841;SDS011;62184;52.006;5.924;2023-08-24T12:42:38;15.23;;;13.02;;
73841;SDS011;62184;52.006;5.924;2023-08-24T12:45:05;15.37;;;13.50;;
73841;SDS011;62184;52.006;5.924;2023-08-24T12:47:33;15.13;;;12.30;;
73841;SDS011;62184;52.006;5.924;2023-08-24T12:50:00;14.73;;;12.82;;
73841;SDS011;62184;52.006;5.924;2023-08-24T12:52:26;16.00;;;13.50;;
73841;SDS011;62184;52.006;5.924;2023-08-24T12:54:53;15.90;;;14.20;;
73841;SDS011;62184;52.006;5.924;2023-08-24T12:57:22;16.85;;;14.70;;
73841;SDS011;62184;52.006;5.924;2023-08-24T12:59:48;17.90;;;14.65;;
73841;SDS011;62184;52.006;5.924;2023-08-24T13:02:15;16.45;;;14.85;;
73841;SDS011;62184;52.006;5.924;2023-08-24T13:04:41;17.47;;;15.53;;
73841;SDS011;62184;52.006;5.924;2023-08-24T13:07:08;17.08;;;15.32;;
73841;SDS011;62184;52.006;5.924;2023-08-24T13:09:34;17.60;;;15.77;;
73841;SDS011;62184;52.006;5.924;2023-08-24T13:12:01;17.13;;;15.43;;
73841;SDS011;62184;52.006;5.924;2023-08-24T13:14:30;17.15;;;15.32;;
73841;SDS011;62184;52.006;5.924;2023-08-24T13:16:56;17.40;;;15.18;;
73841;SDS011;62184;52.006;5.924;2023-08-24T13:19:23;17.25;;;15.45;;
73841;SDS011;62184;52.006;5.924;2023-08-24T13:21:49;16.23;;;14.30;;
73841;SDS011;62184;52.006;5.924;2023-08-24T13:24:16;16.27;;;14.43;;
73841;SDS011;62184;52.006;5.924;2023-08-24T13:26:42;17.65;;;14.32;;
73841;SDS011;62184;52.006;5.924;2023-08-24T13:29:09;14.70;;;13.15;;
73841;SDS011;62184;52.006;5.924;2023-08-24T13:31:38;14.20;;;12.73;;
73841;SDS011;62184;52.006;5.924;2023-08-24T13:34:04;14.38;;;12.85;;
73841;SDS011;62184;52.006;5.924;2023-08-24T13:36:31;14.30;;;12.85;;
73841;SDS011;62184;52.006;5.924;2023-08-24T13:38:57;14.18;;;12.50;;
73841;SDS011;62184;52.006;5.924;2023-08-24T13:41:24;15.48;;;13.88;;
73841;SDS011;62184;52.006;5.924;2023-08-24T13:43:50;13.85;;;12.27;;
73841;SDS011;62184;52.006;5.924;2023-08-24T13:46:17;14.70;;;12.70;;
73841;SDS011;62184;52.006;5.924;2023-08-24T13:48:46;13.80;;;12.30;;
73841;SDS011;62184;52.006;5.924;2023-08-24T13:51:12;15.07;;;13.40;;
73841;SDS011;62184;52.006;5.924;2023-08-24T13:53:38;14.93;;;13.35;;
73841;SDS011;62184;52.006;5.924;2023-08-24T13:56:05;14.23;;;12.77;;
73841;SDS011;62184;52.006;5.924;2023-08-24T13:58:32;14.40;;;12.68;;
73841;SDS011;62184;52.006;5.924;2023-08-24T14:00:58;14.38;;;12.88;;
73841;SDS011;62184;52.006;5.924;2023-08-24T14:03:25;14.75;;;13.18;;
73841;SDS011;62184;52.006;5.924;2023-08-24T14:05:57;13.50;;;12.10;;
73841;SDS011;62184;52.006;5.924;2023-08-24T14:08:24;13.30;;;11.90;;
73841;SDS011;62184;52.006;5.924;2023-08-24T14:10:51;14.77;;;11.73;;
73841;SDS011;62184;52.006;5.924;2023-08-24T14:13:17;14.67;;;12.43;;
73841;SDS011;62184;52.006;5.924;2023-08-24T14:15:44;15.20;;;12.07;;
73841;SDS011;62184;52.006;5.924;2023-08-24T14:18:11;13.15;;;11.75;;
73841;SDS011;62184;52.006;5.924;2023-08-24T14:20:37;14.95;;;12.25;;
73841;SDS011;62184;52.006;5.924;2023-08-24T14:23:07;15.02;;;12.30;;
73841;SDS011;62184;52.006;5.924;2023-08-24T14:25:33;14.02;;;12.50;;